createdAt,value
2018-04-24T00:00:25.564Z,98090.55
2018-04-24T00:02:53.807Z,98093.48
2018-04-24T00:05:22.853Z,98093.74
2018-04-24T00:07:51.121Z,98099.16
2018-04-24T00:10:20.866Z,98096.34
2018-04-24T00:12:49.143Z,98090.25
2018-04-24T00:15:17.382Z,98099.52
2018-04-24T00:17:45.632Z,98094.20
2018-04-24T00:20:13.873Z,98093.49
2018-04-24T00:22:42.890Z,98089.88
2018-04-24T00:25:11.890Z,98090.44
2018-04-24T00:27:40.927Z,98085.66
2018-04-24T00:30:09.923Z,98084.36
2018-04-24T00:32:38.179Z,98091.03
2018-04-24T00:35:06.418Z,98084.58
2018-04-24T00:37:34.697Z,98086.65
2018-04-24T00:40:02.951Z,98088.56
2018-04-24T00:42:37.447Z,98092.89
2018-04-24T00:45:05.705Z,98088.37
2018-04-24T00:47:33.965Z,98086.39
2018-04-24T00:50:03.352Z,98093.30
2018-04-24T00:52:31.612Z,98100.48
2018-04-24T00:54:59.860Z,98102.26
2018-04-24T00:57:29.247Z,98101.14
2018-04-24T00:59:57.664Z,98099.09
2018-04-24T01:02:25.934Z,98094.74
2018-04-24T01:04:54.175Z,98099.91
2018-04-24T01:07:22.451Z,98097.09
2018-04-24T01:09:51.503Z,98094.74
2018-04-24T01:12:19.767Z,98103.16
2018-04-24T01:14:48.019Z,98096.52
2018-04-24T01:17:17.082Z,98095.07
2018-04-24T01:19:45.311Z,98093.53
2018-04-24T01:22:13.565Z,98096.01
2018-04-24T01:24:41.813Z,98095.44
2018-04-24T01:27:10.061Z,98093.85
2018-04-24T01:29:38.323Z,98106.16
2018-04-24T01:32:06.575Z,98100.52
2018-04-24T01:34:34.820Z,98103.27
2018-04-24T01:37:03.070Z,98105.23
2018-04-24T01:39:31.328Z,98110.42
2018-04-24T01:42:00.334Z,98110.02
2018-04-24T01:44:30.131Z,98113.58
2018-04-24T01:46:58.376Z,98109.62
2018-04-24T01:49:26.661Z,98119.87
2018-04-24T01:51:54.915Z,98113.61
2018-04-24T01:54:23.971Z,98123.23
2018-04-24T01:56:52.221Z,98118.83
2018-04-24T01:59:21.244Z,98122.62
2018-04-24T02:01:49.483Z,98126.84
2018-04-24T02:04:17.746Z,98120.47
2018-04-24T02:06:45.986Z,98115.75
2018-04-24T02:09:15.011Z,98116.65
2018-04-24T02:11:43.312Z,98117.19
2018-04-24T02:14:11.566Z,98116.88
2018-04-24T02:16:40.588Z,98118.92
2018-04-24T02:19:09.007Z,98114.38
2018-04-24T02:21:37.256Z,98125.60
2018-04-24T02:24:06.328Z,98120.61
2018-04-24T02:26:34.616Z,98122.98
2018-04-24T02:29:02.875Z,98118.59
2018-04-24T02:31:31.159Z,98125.36
2018-04-24T02:33:59.424Z,98130.95
2018-04-24T02:36:28.457Z,98132.30
2018-04-24T02:38:56.717Z,98126.86
2018-04-24T02:41:24.997Z,98124.98
2018-04-24T02:43:53.212Z,98131.57
2018-04-24T02:46:21.461Z,98132.13
2018-04-24T02:48:49.763Z,98133.98
2018-04-24T02:51:19.525Z,98136.00
2018-04-24T02:53:47.766Z,98129.34
2018-04-24T02:56:16.023Z,98126.48
2018-04-24T02:58:44.278Z,98130.59
2018-04-24T03:01:12.543Z,98125.05
2018-04-24T03:03:40.784Z,98116.34
2018-04-24T03:06:09.039Z,98110.94
2018-04-24T03:08:38.042Z,98102.59
2018-04-24T03:11:07.538Z,98104.19
2018-04-24T03:13:35.795Z,98107.24
2018-04-24T03:16:04.080Z,98110.55
2018-04-24T03:18:32.336Z,98117.08
2018-04-24T03:21:01.371Z,98112.70
2018-04-24T03:23:29.613Z,98114.75
2018-04-24T03:25:58.624Z,98112.63
2018-04-24T03:28:27.627Z,98106.53
2018-04-24T03:30:56.646Z,98104.59
2018-04-24T03:33:24.930Z,98097.80
2018-04-24T03:35:53.953Z,98099.64
2018-04-24T03:38:22.207Z,98110.54
2018-04-24T03:40:50.474Z,98103.06
2018-04-24T03:43:18.701Z,98097.42
2018-04-24T03:45:47.747Z,98106.75
2018-04-24T03:48:15.991Z,98112.69
2018-04-24T03:50:45.065Z,98112.25
2018-04-24T03:53:13.311Z,98104.28
2018-04-24T03:55:41.571Z,98111.99
2018-04-24T03:58:10.603Z,98117.58
2018-04-24T04:00:38.872Z,98118.10
2018-04-24T04:03:07.879Z,98117.38
2018-04-24T04:05:36.918Z,98121.02
2018-04-24T04:08:05.991Z,98111.63
2018-04-24T04:10:35.037Z,98108.77
2018-04-24T04:13:03.301Z,98111.86
2018-04-24T04:15:31.576Z,98109.09
2018-04-24T04:18:17.496Z,98109.89
2018-04-24T04:21:04.510Z,98107.06
2018-04-24T04:23:51.335Z,98114.50
2018-04-24T04:26:20.446Z,98123.03
2018-04-24T04:28:49.479Z,98114.89
2018-04-24T04:31:18.608Z,98119.28
2018-04-24T04:33:46.905Z,98114.70
2018-04-24T04:36:15.175Z,98112.58
2018-04-24T04:38:44.187Z,98115.54
2018-04-24T04:41:12.555Z,98119.24
2018-04-24T04:43:40.839Z,98116.59
2018-04-24T04:46:09.145Z,98118.05
2018-04-24T04:48:37.384Z,98128.67
2018-04-24T04:51:05.647Z,98125.84
2018-04-24T04:53:33.904Z,98124.59
2018-04-24T04:56:02.216Z,98136.09
2018-04-24T04:58:30.415Z,98126.65
2018-04-24T05:00:58.659Z,98123.98
2018-04-24T05:03:28.425Z,98131.28
2018-04-24T05:05:56.672Z,98144.08
2018-04-24T05:08:25.716Z,98143.55
2018-04-24T05:10:53.983Z,98143.29
2018-04-24T05:13:22.262Z,98146.56
2018-04-24T05:15:50.507Z,98142.41
2018-04-24T05:18:18.764Z,98144.97
2018-04-24T05:20:47.027Z,98143.52
2018-04-24T05:23:15.298Z,98137.30
2018-04-24T05:25:44.317Z,98145.45
2018-04-24T05:28:13.335Z,98151.13
2018-04-24T05:30:41.584Z,98145.63
2018-04-24T05:33:09.839Z,98143.00
2018-04-24T05:35:38.094Z,98139.56
2018-04-24T05:38:07.102Z,98142.89
2018-04-24T05:40:35.390Z,98138.14
2018-04-24T05:43:04.427Z,98140.67
2018-04-24T05:45:32.776Z,98135.64
2018-04-24T05:48:01.815Z,98135.30
2018-04-24T05:50:30.046Z,98143.16
2018-04-24T05:52:58.357Z,98142.00
2018-04-24T05:55:26.551Z,98141.44
2018-04-24T05:57:55.649Z,98142.38
2018-04-24T06:00:23.811Z,98149.82
2018-04-24T06:02:52.077Z,98143.91
2018-04-24T06:05:20.311Z,98147.73
2018-04-24T06:07:48.565Z,98145.41
2018-04-24T06:10:16.802Z,98155.59
2018-04-24T06:12:45.834Z,98152.52
2018-04-24T06:15:14.195Z,98153.58
2018-04-24T06:17:42.315Z,98145.35
2018-04-24T06:20:10.572Z,98148.56
2018-04-24T06:22:38.832Z,98148.80
2018-04-24T06:25:07.079Z,98155.35
2018-04-24T06:27:35.363Z,98155.02
2018-04-24T06:30:03.611Z,98151.66
2018-04-24T06:32:31.907Z,98155.46
2018-04-24T06:35:00.187Z,98154.67
2018-04-24T06:37:28.431Z,98151.25
2018-04-24T06:39:56.687Z,98148.22
2018-04-24T06:42:25.696Z,98150.13
2018-04-24T06:44:54.720Z,98154.89
2018-04-24T06:47:22.973Z,98145.75
2018-04-24T06:49:51.279Z,98153.53
2018-04-24T06:52:20.281Z,98140.59
2018-04-24T06:54:49.376Z,98145.03
2018-04-24T06:57:17.627Z,98135.72
2018-04-24T06:59:45.896Z,98142.01
2018-04-24T07:02:14.154Z,98143.73
2018-04-24T07:04:43.189Z,98141.27
2018-04-24T07:07:11.438Z,98142.11
2018-04-24T07:09:39.695Z,98138.06
2018-04-24T07:12:07.943Z,98141.61
2018-04-24T07:14:36.207Z,98142.84
2018-04-24T07:17:05.968Z,98141.52
2018-04-24T07:19:34.243Z,98148.28
2018-04-24T07:22:02.504Z,98140.59
2018-04-24T07:24:30.746Z,98150.58
2018-04-24T07:26:58.974Z,98140.70
2018-04-24T07:29:27.230Z,98139.99
2018-04-24T07:31:55.479Z,98135.50
2018-04-24T07:34:24.501Z,98140.08
2018-04-24T07:36:52.749Z,98141.54
2018-04-24T07:39:21.004Z,98140.56
2018-04-24T07:41:49.243Z,98139.11
2018-04-24T07:44:18.635Z,98144.14
2018-04-24T07:46:46.947Z,98141.98
2018-04-24T07:49:15.178Z,98137.72
2018-04-24T07:51:43.503Z,98136.98
2018-04-24T07:54:11.663Z,98139.73
2018-04-24T07:56:39.915Z,98142.97
2018-04-24T07:59:08.162Z,98140.25
2018-04-24T08:01:36.520Z,98134.52
2018-04-24T08:04:04.763Z,98131.89
2018-04-24T08:06:33.035Z,98134.30
2018-04-24T08:09:01.286Z,98139.12
2018-04-24T08:11:29.556Z,98139.52
2018-04-24T08:13:58.578Z,98139.53
2018-04-24T08:16:26.827Z,98129.10
2018-04-24T08:18:55.072Z,98132.89
2018-04-24T08:21:23.310Z,98141.35
2018-04-24T08:23:52.319Z,98139.94
2018-04-24T08:26:20.641Z,98138.17
2018-04-24T08:28:48.901Z,98141.36
2018-04-24T08:31:17.940Z,98138.96
2018-04-24T08:33:46.182Z,98139.82
2018-04-24T08:36:14.440Z,98130.73
2018-04-24T08:38:42.679Z,98123.25
2018-04-24T08:41:11.731Z,98126.09
2018-04-24T08:43:39.959Z,98132.14
2018-04-24T08:46:08.210Z,98123.86
2018-04-24T08:48:36.447Z,98120.61
2018-04-24T08:51:04.710Z,98123.74
2018-04-24T08:53:32.964Z,98137.06
2018-04-24T08:56:01.222Z,98123.99
2018-04-24T08:58:30.891Z,98129.80
2018-04-24T09:00:59.275Z,98122.84
2018-04-24T09:03:27.527Z,98122.83
2018-04-24T09:05:56.655Z,98130.55
2018-04-24T09:08:24.899Z,98128.73
2018-04-24T09:10:54.649Z,98123.47
2018-04-24T09:13:23.687Z,98125.70
2018-04-24T09:15:51.925Z,98129.12
2018-04-24T09:18:20.212Z,98121.70
2018-04-24T09:20:48.449Z,98121.38
2018-04-24T09:23:16.711Z,98115.22
2018-04-24T09:25:44.959Z,98120.91
2018-04-24T09:28:13.250Z,98126.78
2018-04-24T09:30:42.256Z,98126.19
2018-04-24T09:33:10.548Z,98120.88
2018-04-24T09:35:38.769Z,98121.38
2018-04-24T09:38:07.813Z,98125.35
2018-04-24T09:40:37.021Z,98118.67
2018-04-24T09:43:05.286Z,98120.75
2018-04-24T09:45:34.316Z,98118.89
2018-04-24T09:48:02.567Z,98118.85
2018-04-24T09:50:30.826Z,98108.66
2018-04-24T09:53:00.615Z,98117.78
2018-04-24T09:55:28.861Z,98110.04
2018-04-24T09:57:57.117Z,98109.11
2018-04-24T10:00:30.796Z,98108.23
2018-04-24T10:02:59.097Z,98104.11
2018-04-24T10:05:27.405Z,98095.69
2018-04-24T10:07:55.675Z,98096.70
2018-04-24T10:10:23.920Z,98103.52
2018-04-24T10:12:52.455Z,98105.43
2018-04-24T10:15:20.771Z,98101.79
2018-04-24T10:17:49.076Z,98095.08
2018-04-24T10:20:17.311Z,98093.09
2018-04-24T10:22:46.348Z,98085.34
2018-04-24T10:25:14.588Z,98088.38
2018-04-24T10:27:42.827Z,98082.02
2018-04-24T10:30:11.067Z,98078.19
2018-04-24T10:32:39.344Z,98077.79
2018-04-24T10:35:07.640Z,98075.78
2018-04-24T10:37:35.947Z,98074.07
2018-04-24T10:40:04.175Z,98069.04
2018-04-24T10:42:32.423Z,98065.18
2018-04-24T10:45:00.674Z,98065.91
2018-04-24T10:47:28.975Z,98071.80
2018-04-24T10:49:57.260Z,98057.34
2018-04-24T10:52:25.528Z,98058.37
2018-04-24T10:54:53.957Z,98057.09
2018-04-24T10:57:22.205Z,98059.21
2018-04-24T10:59:50.478Z,98057.80
2018-04-24T11:02:19.487Z,98060.29
2018-04-24T11:04:47.747Z,98065.19
2018-04-24T11:07:16.036Z,98064.81
2018-04-24T11:09:45.059Z,98060.13
2018-04-24T11:12:14.061Z,98055.41
2018-04-24T11:14:43.100Z,98051.08
2018-04-24T11:17:12.892Z,98051.42
2018-04-24T11:19:41.138Z,98052.31
2018-04-24T11:22:09.370Z,98040.16
2018-04-24T11:24:38.403Z,98042.37
2018-04-24T11:27:06.633Z,98038.62
2018-04-24T11:29:34.926Z,98041.00
2018-04-24T11:32:03.381Z,98039.28
2018-04-24T11:34:31.681Z,98042.53
2018-04-24T11:36:59.938Z,98040.19
2018-04-24T11:39:28.203Z,98026.92
2018-04-24T11:41:56.438Z,98027.87
2018-04-24T11:44:25.590Z,98025.00
2018-04-24T11:46:53.869Z,98022.09
2018-04-24T11:49:22.137Z,98021.58
2018-04-24T11:51:51.160Z,98025.80
2018-04-24T11:54:20.176Z,98027.55
2018-04-24T11:56:49.286Z,98024.55
2018-04-24T11:59:18.319Z,98025.41
2018-04-24T12:01:46.576Z,98012.54
2018-04-24T12:04:15.582Z,98026.67
2018-04-24T12:06:44.610Z,98007.75
2018-04-24T12:09:12.851Z,98005.02
2018-04-24T12:11:41.305Z,98013.58
2018-04-24T12:14:09.569Z,98005.85
2018-04-24T12:16:38.606Z,98008.81
2018-04-24T12:19:07.565Z,98002.02
2018-04-24T12:21:35.811Z,98003.59
2018-04-24T12:24:04.067Z,97997.11
2018-04-24T12:26:32.327Z,98005.24
2018-04-24T12:29:00.626Z,97998.92
2018-04-24T12:31:29.645Z,98003.64
2018-04-24T12:33:57.906Z,98002.20
2018-04-24T12:36:26.167Z,98003.27
2018-04-24T12:38:54.484Z,98008.91
2018-04-24T12:41:22.741Z,98005.27
2018-04-24T12:43:50.990Z,98007.17
2018-04-24T12:46:19.252Z,97991.44
2018-04-24T12:48:47.487Z,97994.50
2018-04-24T12:51:15.751Z,97989.22
2018-04-24T12:53:44.761Z,97996.24
2018-04-24T12:56:13.803Z,97985.30
2018-04-24T12:58:42.055Z,97980.08
2018-04-24T13:01:11.069Z,97984.53
2018-04-24T13:03:39.316Z,97972.19
2018-04-24T13:06:07.638Z,97971.99
2018-04-24T13:08:36.668Z,97971.94
2018-04-24T13:11:04.937Z,97973.16
2018-04-24T13:13:33.996Z,97962.58
2018-04-24T13:16:02.259Z,97967.66
2018-04-24T13:18:30.514Z,97961.14
2018-04-24T13:20:59.624Z,97955.13
2018-04-24T13:23:27.885Z,97956.64
2018-04-24T13:25:56.143Z,97952.84
2018-04-24T13:28:24.387Z,97945.34
2018-04-24T13:30:52.681Z,97949.63
2018-04-24T13:33:21.686Z,97941.44
2018-04-24T13:35:50.754Z,97940.31
2018-04-24T13:38:19.064Z,97940.23
2018-04-24T13:40:47.374Z,97937.34
2018-04-24T13:43:15.661Z,97929.81
2018-04-24T13:45:43.895Z,97926.30
2018-04-24T13:48:12.166Z,97921.43
2018-04-24T13:50:40.410Z,97926.42
2018-04-24T13:53:08.799Z,97920.20
2018-04-24T13:55:37.056Z,97912.77
2018-04-24T13:58:05.333Z,97908.41
2018-04-24T14:00:33.571Z,97911.49
2018-04-24T14:03:01.822Z,97906.17
2018-04-24T14:05:30.073Z,97904.25
2018-04-24T14:07:59.095Z,97900.34
2018-04-24T14:10:27.327Z,97896.98
2018-04-24T14:12:55.610Z,97896.19
2018-04-24T14:15:23.843Z,97888.75
2018-04-24T14:17:54.610Z,97888.59
2018-04-24T14:20:22.890Z,97892.34
2018-04-24T14:22:51.915Z,97885.89
2018-04-24T14:25:20.176Z,97877.56
2018-04-24T14:27:49.287Z,97876.47
2018-04-24T14:30:17.619Z,97863.69
2018-04-24T14:32:45.876Z,97864.14
2018-04-24T14:35:14.123Z,97862.23
2018-04-24T14:37:42.376Z,97858.42
2018-04-24T14:40:10.627Z,97854.06
2018-04-24T14:42:39.732Z,97851.14
2018-04-24T14:45:07.893Z,97851.66
2018-04-24T14:47:36.165Z,97848.61
2018-04-24T14:50:04.540Z,97844.55
2018-04-24T14:52:32.710Z,97844.39
2018-04-24T14:55:00.980Z,97843.67
2018-04-24T14:57:30.000Z,97835.61
2018-04-24T14:59:58.261Z,97831.63
2018-04-24T15:02:27.280Z,97834.94
2018-04-24T15:04:56.355Z,97838.70
2018-04-24T15:07:24.681Z,97824.22
2018-04-24T15:09:52.976Z,97827.30
2018-04-24T15:12:21.235Z,97825.25
2018-04-24T15:14:50.270Z,97830.56
2018-04-24T15:17:19.283Z,97825.50
2018-04-24T15:19:47.562Z,97818.62
2018-04-24T15:22:16.573Z,97806.45
2018-04-24T15:24:45.594Z,97823.80
2018-04-24T15:27:13.842Z,97809.95
2018-04-24T15:29:42.115Z,97802.58
2018-04-24T15:32:10.371Z,97811.57
2018-04-24T15:34:38.649Z,97801.90
2018-04-24T15:37:06.905Z,97799.64
2018-04-24T15:39:35.170Z,97798.55
2018-04-24T15:42:03.411Z,97786.81
2018-04-24T15:44:31.669Z,97794.62
2018-04-24T15:46:59.931Z,97787.03
2018-04-24T15:49:28.248Z,97785.47
2018-04-24T15:51:56.423Z,97783.87
2018-04-24T15:54:24.734Z,97785.61
2018-04-24T15:56:52.976Z,97780.33
2018-04-24T15:59:21.355Z,97780.28
2018-04-24T16:01:49.596Z,97780.66
2018-04-24T16:04:18.619Z,97774.47
2018-04-24T16:06:46.863Z,97779.48
2018-04-24T16:09:15.121Z,97768.23
2018-04-24T16:11:43.367Z,97770.77
2018-04-24T16:14:12.392Z,97763.85
2018-04-24T16:16:40.633Z,97768.36
2018-04-24T16:19:08.891Z,97768.08
2018-04-24T16:21:37.130Z,97755.30
2018-04-24T16:24:05.449Z,97755.55
2018-04-24T16:26:33.644Z,97754.92
2018-04-24T16:29:01.883Z,97751.64
2018-04-24T16:31:30.148Z,97753.53
2018-04-24T16:33:58.400Z,97750.23
2018-04-24T16:36:27.474Z,97747.83
2018-04-24T16:38:55.716Z,97746.20
2018-04-24T16:41:24.042Z,97744.21
2018-04-24T16:43:52.298Z,97748.08
2018-04-24T16:46:20.562Z,97741.31
2018-04-24T16:48:48.835Z,97745.70
2018-04-24T16:51:18.265Z,97736.97
2018-04-24T16:53:47.663Z,97742.12
2018-04-24T16:56:16.010Z,97739.89
2018-04-24T16:58:44.155Z,97738.77
2018-04-24T17:01:13.280Z,97746.41
2018-04-24T17:03:41.565Z,97744.99
2018-04-24T17:06:10.667Z,97743.79
2018-04-24T17:08:38.906Z,97750.80
2018-04-24T17:11:08.059Z,97743.09
2018-04-24T17:13:37.133Z,97742.81
2018-04-24T17:16:05.390Z,97743.97
2018-04-24T17:18:33.654Z,97744.47
2018-04-24T17:21:02.676Z,97738.83
2018-04-24T17:23:30.902Z,97735.66
2018-04-24T17:25:59.167Z,97734.88
2018-04-24T17:28:27.401Z,97740.52
2018-04-24T17:30:55.750Z,97742.61
2018-04-24T17:33:24.031Z,97748.47
2018-04-24T17:35:52.327Z,97735.52
2018-04-24T17:38:20.921Z,97739.09
2018-04-24T17:40:49.247Z,97738.73
2018-04-24T17:43:17.459Z,97737.66
2018-04-24T17:45:46.488Z,97741.52
2018-04-24T17:48:15.508Z,97729.17
2018-04-24T17:50:43.742Z,97738.31
2018-04-24T17:53:12.031Z,97734.55
2018-04-24T17:55:41.835Z,97733.91
2018-04-24T17:58:10.220Z,97731.77
2018-04-24T18:00:38.520Z,97737.00
2018-04-24T18:03:07.584Z,97735.37
2018-04-24T18:05:35.832Z,97735.30
2018-04-24T18:08:04.139Z,97740.36
2018-04-24T18:10:33.172Z,97731.57
2018-04-24T18:13:02.226Z,97731.81
2018-04-24T18:15:30.515Z,97733.58
2018-04-24T18:17:58.775Z,97738.59
2018-04-24T18:20:27.013Z,97737.11
2018-04-24T18:22:55.286Z,97744.37
2018-04-24T18:25:24.327Z,97733.34
2018-04-24T18:27:53.773Z,97729.34
2018-04-24T18:30:22.055Z,97730.97
2018-04-24T18:32:50.316Z,97736.14
2018-04-24T18:35:19.331Z,97731.83
2018-04-24T18:37:47.585Z,97734.09
2018-04-24T18:40:15.839Z,97739.27
2018-04-24T18:42:44.095Z,97730.51
2018-04-24T18:45:13.120Z,97728.97
2018-04-24T18:47:41.403Z,97728.63
2018-04-24T18:50:09.710Z,97731.95
2018-04-24T18:52:37.974Z,97731.20
2018-04-24T18:55:06.992Z,97730.81
2018-04-24T18:57:35.228Z,97730.31
2018-04-24T19:00:03.619Z,97737.34
2018-04-24T19:02:31.866Z,97729.28
2018-04-24T19:05:00.227Z,97735.17
2018-04-24T19:07:29.231Z,97729.66
2018-04-24T19:09:58.847Z,97730.17
2018-04-24T19:12:27.863Z,97730.58
2018-04-24T19:14:57.291Z,97735.05
2018-04-24T19:17:26.399Z,97733.91
2018-04-24T19:19:55.443Z,97741.98
2018-04-24T19:22:23.716Z,97735.11
2018-04-24T19:24:57.619Z,97749.82
2018-04-24T19:27:25.882Z,97734.02
2018-04-24T19:29:54.176Z,97732.27
2018-04-24T19:32:28.664Z,97734.88
2018-04-24T19:34:56.940Z,97739.89
2018-04-24T19:37:25.219Z,97727.14
2018-04-24T19:39:59.119Z,97731.91
2018-04-24T19:42:28.505Z,97734.31
2018-04-24T19:44:57.535Z,97729.58
2018-04-24T19:47:26.548Z,97726.28
2018-04-24T19:50:01.854Z,97730.55
2018-04-24T19:52:30.130Z,97731.11
2018-04-24T19:55:03.913Z,97730.08
2018-04-24T19:57:32.943Z,97731.05
2018-04-24T20:00:01.198Z,97732.25
2018-04-24T20:02:30.248Z,97728.02
2018-04-24T20:04:59.278Z,97723.73
2018-04-24T20:07:27.526Z,97720.89
2018-04-24T20:09:56.574Z,97724.69
2018-04-24T20:12:24.851Z,97731.11
2018-04-24T20:14:53.104Z,97723.23
2018-04-24T20:17:21.545Z,97733.83
2018-04-24T20:19:49.823Z,97727.58
2018-04-24T20:22:18.074Z,97725.81
2018-04-24T20:24:47.468Z,97729.56
2018-04-24T20:27:16.475Z,97720.75
2018-04-24T20:29:44.771Z,97724.64
2018-04-24T20:32:13.104Z,97720.09
2018-04-24T20:34:41.368Z,97726.89
2018-04-24T20:37:09.636Z,97724.25
2018-04-24T20:39:38.647Z,97715.81
2018-04-24T20:42:07.659Z,97715.54
2018-04-24T20:44:36.675Z,97716.75
2018-04-24T20:47:04.914Z,97718.34
2018-04-24T20:49:33.161Z,97710.98
2018-04-24T20:52:01.444Z,97712.32
2018-04-24T20:54:29.749Z,97714.20
2018-04-24T20:56:58.008Z,97710.45
2018-04-24T20:59:27.018Z,97706.57
2018-04-24T21:01:56.049Z,97705.38
2018-04-24T21:04:24.336Z,97702.03
2018-04-24T21:06:52.634Z,97700.30
2018-04-24T21:09:21.308Z,97704.58
2018-04-24T21:11:50.407Z,97704.97
2018-04-24T21:14:19.416Z,97697.73
2018-04-24T21:16:48.436Z,97701.36
2018-04-24T21:19:17.557Z,97698.55
2018-04-24T21:21:45.868Z,97698.41
2018-04-24T21:24:14.107Z,97702.55
2018-04-24T21:26:43.134Z,97699.20
2018-04-24T21:29:11.387Z,97698.39
2018-04-24T21:31:40.456Z,97692.64
2018-04-24T21:34:08.799Z,97693.98
2018-04-24T21:36:38.574Z,97690.92
2018-04-24T21:39:06.816Z,97689.96
2018-04-24T21:41:36.218Z,97685.41
2018-04-24T21:44:04.453Z,97693.16
2018-04-24T21:46:32.748Z,97687.14
2018-04-24T21:49:00.996Z,97686.06
2018-04-24T21:51:30.112Z,97676.03
2018-04-24T21:53:59.104Z,97680.45
2018-04-24T21:56:28.539Z,97677.37
2018-04-24T21:58:56.924Z,97674.55
2018-04-24T22:01:26.046Z,97676.95
2018-04-24T22:03:54.356Z,97671.76
2018-04-24T22:06:22.663Z,97671.73
2018-04-24T22:08:50.900Z,97667.16
2018-04-24T22:11:19.927Z,97667.81
2018-04-24T22:13:48.236Z,97660.48
2018-04-24T22:16:16.495Z,97661.54
2018-04-24T22:18:45.527Z,97657.39
2018-04-24T22:21:13.806Z,97654.95
2018-04-24T22:23:42.066Z,97652.00
2018-04-24T22:26:11.084Z,97656.81
2018-04-24T22:28:40.162Z,97644.40
2018-04-24T22:31:08.435Z,97644.77
2018-04-24T22:33:36.869Z,97649.56
2018-04-24T22:36:05.133Z,97648.11
2018-04-24T22:38:33.493Z,97652.09
2018-04-24T22:41:01.729Z,97654.30
2018-04-24T22:43:30.749Z,97650.77
2018-04-24T22:46:00.491Z,97653.53
2018-04-24T22:48:28.754Z,97651.27
2018-04-24T22:50:57.772Z,97647.84
2018-04-24T22:53:26.819Z,97651.30
2018-04-24T22:55:55.065Z,97651.14
2018-04-24T22:58:24.120Z,97645.86
2018-04-24T23:00:52.477Z,97654.80
2018-04-24T23:03:22.116Z,97652.66
2018-04-24T23:05:50.472Z,97653.02
2018-04-24T23:08:19.486Z,97649.58
2018-04-24T23:11:05.574Z,97645.98
2018-04-24T23:13:51.483Z,97651.97
2018-04-24T23:16:38.370Z,97643.43
2018-04-24T23:19:24.554Z,97641.94
2018-04-24T23:21:52.881Z,97641.91
2018-04-24T23:24:21.153Z,97645.05
2018-04-24T23:26:49.404Z,97648.77
2018-04-24T23:29:18.492Z,97643.52
2018-04-24T23:31:47.502Z,97645.17
2018-04-24T23:34:15.783Z,97634.30
2018-04-24T23:36:44.191Z,97633.58
2018-04-24T23:39:13.313Z,97634.12
2018-04-24T23:41:41.550Z,97626.38
2018-04-24T23:44:09.881Z,97624.13
2018-04-24T23:46:39.549Z,97624.61
2018-04-24T23:49:07.825Z,97623.36
2018-04-24T23:51:36.079Z,97623.70
2018-04-24T23:54:05.117Z,97610.48
2018-04-24T23:56:36.135Z,97613.73
2018-04-24T23:59:05.157Z,97620.88
